createdAt,value
2017-10-16T00:01:28.981Z,6.30
2017-10-16T00:03:59.773Z,6.70
2017-10-16T00:06:30.549Z,6.47
2017-10-16T00:09:01.317Z,6.77
2017-10-16T00:11:32.093Z,6.13
2017-10-16T00:14:02.870Z,6.50
2017-10-16T00:16:33.626Z,6.10
2017-10-16T00:19:04.478Z,6.13
2017-10-16T00:21:35.250Z,6.70
2017-10-16T00:24:06.015Z,6.67
2017-10-16T00:26:36.813Z,6.77
2017-10-16T00:29:07.594Z,6.10
2017-10-16T00:31:38.367Z,6.30
2017-10-16T00:34:09.141Z,6.67
2017-10-16T00:36:39.909Z,6.63
2017-10-16T00:39:10.693Z,6.67
2017-10-16T00:41:41.478Z,6.33
2017-10-16T00:44:12.262Z,6.13
2017-10-16T00:46:43.059Z,6.10
2017-10-16T00:49:13.821Z,6.70
2017-10-16T00:51:44.587Z,6.40
2017-10-16T00:54:15.354Z,6.60
2017-10-16T00:56:46.135Z,6.10
2017-10-16T00:59:16.923Z,6.77
2017-10-16T01:01:47.705Z,6.30
2017-10-16T01:04:18.473Z,6.43
2017-10-16T01:06:49.254Z,6.40
2017-10-16T01:09:20.035Z,5.97
2017-10-16T01:11:50.829Z,6.00
2017-10-16T01:14:21.592Z,5.90
2017-10-16T01:16:52.383Z,6.83
2017-10-16T01:19:23.141Z,6.23
2017-10-16T01:21:53.918Z,6.53
2017-10-16T01:24:24.667Z,6.37
2017-10-16T01:26:55.462Z,6.20
2017-10-16T01:29:26.221Z,6.27
2017-10-16T01:31:57.031Z,6.27
2017-10-16T01:34:27.773Z,6.60
2017-10-16T01:36:58.556Z,6.37
2017-10-16T01:39:29.318Z,6.10
2017-10-16T01:42:00.108Z,6.23
2017-10-16T01:44:30.861Z,6.30
2017-10-16T01:47:01.637Z,6.67
2017-10-16T01:49:32.432Z,6.47
2017-10-16T01:52:03.190Z,6.03
2017-10-16T01:54:33.961Z,6.70
2017-10-16T01:57:04.726Z,6.53
2017-10-16T01:59:35.497Z,5.97
2017-10-16T02:02:06.273Z,6.60
2017-10-16T02:04:37.051Z,6.30
2017-10-16T02:07:07.825Z,6.40
2017-10-16T02:09:39.622Z,6.20
2017-10-16T02:12:10.381Z,6.50
2017-10-16T02:14:41.157Z,6.60
2017-10-16T02:17:11.934Z,6.43
2017-10-16T02:19:42.730Z,6.63
2017-10-16T02:22:13.493Z,5.93
2017-10-16T02:24:44.269Z,6.17
2017-10-16T02:27:15.062Z,6.27
2017-10-16T02:29:45.832Z,6.10
2017-10-16T02:32:16.624Z,6.27
2017-10-16T02:34:47.389Z,6.53
2017-10-16T02:37:18.169Z,6.17
2017-10-16T02:39:48.941Z,6.27
2017-10-16T02:42:19.701Z,6.27
2017-10-16T02:44:50.507Z,6.37
2017-10-16T02:47:21.261Z,6.30
2017-10-16T02:49:52.029Z,6.37
2017-10-16T02:52:22.798Z,6.20
2017-10-16T02:54:53.613Z,6.43
2017-10-16T02:57:24.373Z,6.73
2017-10-16T02:59:55.170Z,6.37
2017-10-16T03:02:25.921Z,6.47
2017-10-16T03:04:56.698Z,6.57
2017-10-16T03:07:27.460Z,6.50
2017-10-16T03:09:58.278Z,6.50
2017-10-16T03:12:29.030Z,6.10
2017-10-16T03:14:59.789Z,6.60
2017-10-16T03:17:30.580Z,6.30
2017-10-16T03:20:01.369Z,6.30
2017-10-16T03:22:32.124Z,6.60
2017-10-16T03:25:02.909Z,6.30
2017-10-16T03:27:33.674Z,6.13
2017-10-16T03:30:04.450Z,6.20
2017-10-16T03:32:35.230Z,6.30
2017-10-16T03:35:05.990Z,6.63
2017-10-16T03:37:36.778Z,6.37
2017-10-16T03:40:07.574Z,6.23
2017-10-16T03:42:38.361Z,6.40
2017-10-16T03:45:09.129Z,6.20
2017-10-16T03:47:39.914Z,6.30
2017-10-16T03:50:10.687Z,6.57
2017-10-16T03:52:41.490Z,6.13
2017-10-16T03:55:12.256Z,6.30
2017-10-16T03:57:43.025Z,5.90
2017-10-16T04:00:13.817Z,6.20
2017-10-16T04:02:44.577Z,6.10
2017-10-16T04:05:15.365Z,6.30
2017-10-16T04:07:46.137Z,6.47
2017-10-16T04:10:16.892Z,6.70
2017-10-16T04:12:47.670Z,6.37
2017-10-16T04:15:18.429Z,6.50
2017-10-16T04:17:49.227Z,6.47
2017-10-16T04:20:19.965Z,6.17
2017-10-16T04:22:50.745Z,6.77
2017-10-16T04:25:21.521Z,6.13
2017-10-16T04:27:52.294Z,6.67
2017-10-16T04:30:23.077Z,6.70
2017-10-16T04:32:54.098Z,6.10
2017-10-16T04:35:24.872Z,6.27
2017-10-16T04:37:55.632Z,6.20
2017-10-16T04:40:26.413Z,6.20
2017-10-16T04:42:57.196Z,6.30
2017-10-16T04:45:27.950Z,6.23
2017-10-16T04:47:58.705Z,6.40
2017-10-16T04:50:29.485Z,5.97
2017-10-16T04:53:00.249Z,6.40
2017-10-16T04:55:31.020Z,6.60
2017-10-16T04:58:01.781Z,6.10
2017-10-16T05:00:32.562Z,6.17
2017-10-16T05:03:03.317Z,6.27
2017-10-16T05:05:34.100Z,5.77
2017-10-16T05:08:04.850Z,6.07
2017-10-16T05:10:35.643Z,5.97
2017-10-16T05:13:06.407Z,6.20
2017-10-16T05:15:37.175Z,6.17
2017-10-16T05:18:07.937Z,6.10
2017-10-16T05:20:38.698Z,6.00
2017-10-16T05:23:09.493Z,5.40
2017-10-16T05:25:40.257Z,6.10
2017-10-16T05:28:11.041Z,6.03
2017-10-16T05:30:41.801Z,6.23
2017-10-16T05:33:12.575Z,6.43
2017-10-16T05:35:43.350Z,6.37
2017-10-16T05:38:14.105Z,6.20
2017-10-16T05:40:44.891Z,6.00
2017-10-16T05:43:15.657Z,6.10
2017-10-16T05:45:46.426Z,6.30
2017-10-16T05:48:17.202Z,6.70
2017-10-16T05:50:47.978Z,5.97
2017-10-16T05:53:18.750Z,7.03
2017-10-16T05:55:49.503Z,6.63
2017-10-16T05:58:20.282Z,7.10
2017-10-16T06:00:51.280Z,6.60
2017-10-16T06:03:22.053Z,6.53
2017-10-16T06:05:52.818Z,6.67
2017-10-16T06:08:23.598Z,6.60
2017-10-16T06:10:54.358Z,6.30
2017-10-16T06:13:25.146Z,6.43
2017-10-16T06:15:55.934Z,6.20
2017-10-16T06:18:26.686Z,6.60
2017-10-16T06:20:57.470Z,6.03
2017-10-16T06:23:28.222Z,6.40
2017-10-16T06:25:58.989Z,6.60
2017-10-16T06:28:29.770Z,6.40
2017-10-16T06:31:00.552Z,5.77
2017-10-16T06:33:31.324Z,5.80
2017-10-16T06:36:02.077Z,6.10
2017-10-16T06:38:32.861Z,6.20
2017-10-16T06:41:03.637Z,6.20
2017-10-16T06:43:34.420Z,6.30
2017-10-16T06:46:05.191Z,6.13
2017-10-16T06:48:35.961Z,6.00
2017-10-16T06:51:06.748Z,6.00
2017-10-16T06:53:37.505Z,6.30
2017-10-16T06:56:08.276Z,6.37
2017-10-16T06:58:39.034Z,6.17
2017-10-16T07:01:09.785Z,6.33
2017-10-16T07:03:40.565Z,6.10
2017-10-16T07:06:11.581Z,6.30
2017-10-16T07:08:42.350Z,5.80
2017-10-16T07:11:13.350Z,6.10
2017-10-16T07:13:44.126Z,6.20
2017-10-16T07:16:14.878Z,6.00
2017-10-16T07:18:45.642Z,6.50
2017-10-16T07:21:16.470Z,6.07
2017-10-16T07:23:47.236Z,6.70
2017-10-16T07:26:18.010Z,5.70
2017-10-16T07:28:48.770Z,6.13
2017-10-16T07:31:19.567Z,6.07
2017-10-16T07:33:50.341Z,6.07
2017-10-16T07:36:21.097Z,5.90
2017-10-16T07:38:51.881Z,6.03
2017-10-16T07:41:22.649Z,5.87
2017-10-16T07:43:53.413Z,6.00
2017-10-16T07:46:24.178Z,6.27
2017-10-16T07:48:54.972Z,6.00
2017-10-16T07:51:25.766Z,6.00
2017-10-16T07:53:56.532Z,6.30
2017-10-16T07:56:27.313Z,6.07
2017-10-16T07:58:58.117Z,6.33
2017-10-16T08:01:28.870Z,6.13
2017-10-16T08:04:00.502Z,6.00
2017-10-16T08:06:31.256Z,6.17
2017-10-16T08:09:02.704Z,6.13
2017-10-16T08:11:33.490Z,5.83
2017-10-16T08:14:04.277Z,5.87
2017-10-16T08:16:35.061Z,5.77
2017-10-16T08:19:05.867Z,6.00
2017-10-16T08:21:36.655Z,5.87
2017-10-16T08:24:07.806Z,5.90
2017-10-16T08:26:38.590Z,5.67
2017-10-16T08:29:09.376Z,6.00
2017-10-16T08:31:40.161Z,6.17
2017-10-16T08:34:10.965Z,6.23
2017-10-16T08:36:41.737Z,6.37
2017-10-16T08:39:12.529Z,6.30
2017-10-16T08:41:43.306Z,6.13
2017-10-16T08:44:14.079Z,6.00
2017-10-16T08:46:44.854Z,6.03
2017-10-16T08:49:16.866Z,6.23
2017-10-16T08:51:47.629Z,6.10
2017-10-16T08:54:18.382Z,6.50
2017-10-16T08:56:49.150Z,6.10
2017-10-16T08:59:19.913Z,6.03
2017-10-16T09:01:50.681Z,6.13
2017-10-16T09:04:21.481Z,6.03
2017-10-16T09:06:52.250Z,6.00
2017-10-16T09:09:23.021Z,6.00
2017-10-16T09:11:53.805Z,6.00
2017-10-16T09:14:24.546Z,6.43
2017-10-16T09:16:55.357Z,6.47
2017-10-16T09:19:26.117Z,6.33
2017-10-16T09:21:56.899Z,6.30
2017-10-16T09:24:27.681Z,5.83
2017-10-16T09:26:58.457Z,6.07
2017-10-16T09:29:29.245Z,6.27
2017-10-16T09:32:00.017Z,6.00
2017-10-16T09:34:30.789Z,6.03
2017-10-16T09:37:01.558Z,6.27
2017-10-16T09:39:32.329Z,6.00
2017-10-16T09:42:03.086Z,5.77
2017-10-16T09:44:33.861Z,6.27
2017-10-16T09:47:04.629Z,6.30
2017-10-16T09:49:35.430Z,6.23
2017-10-16T09:52:06.187Z,5.90
2017-10-16T09:54:36.981Z,5.87
2017-10-16T09:57:07.753Z,6.20
2017-10-16T09:59:38.525Z,6.20
2017-10-16T10:02:09.301Z,5.80
2017-10-16T10:04:40.073Z,6.10
2017-10-16T10:07:10.830Z,6.40
2017-10-16T10:09:41.617Z,6.17
2017-10-16T10:12:12.409Z,6.40
2017-10-16T10:14:43.189Z,5.90
2017-10-16T10:17:13.967Z,6.30
2017-10-16T10:19:44.728Z,6.37
2017-10-16T10:22:15.519Z,6.40
2017-10-16T10:24:46.287Z,6.23
2017-10-16T10:27:17.091Z,6.03
2017-10-16T10:29:47.857Z,5.97
2017-10-16T10:32:18.625Z,6.20
2017-10-16T10:34:49.413Z,6.30
2017-10-16T10:37:20.177Z,6.10
2017-10-16T10:39:50.965Z,6.40
2017-10-16T10:42:22.026Z,6.23
2017-10-16T10:44:52.817Z,6.60
2017-10-16T10:47:23.619Z,6.30
2017-10-16T10:49:54.410Z,6.27
2017-10-16T10:52:25.189Z,6.03
2017-10-16T10:54:55.959Z,5.90
2017-10-16T10:57:26.757Z,6.10
2017-10-16T10:59:57.529Z,5.97
2017-10-16T11:02:28.989Z,6.13
2017-10-16T11:04:59.797Z,6.17
2017-10-16T11:07:30.574Z,6.50
2017-10-16T11:10:01.354Z,6.07
2017-10-16T11:12:32.122Z,6.30
2017-10-16T11:15:02.898Z,5.97
2017-10-16T11:17:33.688Z,5.97
2017-10-16T11:20:04.446Z,5.80
2017-10-16T11:22:35.214Z,5.93
2017-10-16T11:25:05.988Z,6.17
2017-10-16T11:27:36.783Z,6.13
2017-10-16T11:30:07.531Z,6.07
2017-10-16T11:32:38.313Z,6.40
2017-10-16T11:35:09.085Z,6.00
2017-10-16T11:37:39.892Z,6.17
2017-10-16T11:40:11.688Z,6.10
2017-10-16T11:42:42.463Z,6.17
2017-10-16T11:45:13.230Z,6.03
2017-10-16T11:47:44.006Z,6.30
2017-10-16T11:50:14.781Z,5.87
2017-10-16T11:52:45.570Z,5.60
2017-10-16T11:55:16.361Z,6.00
2017-10-16T11:57:47.121Z,5.93
2017-10-16T12:00:17.890Z,6.03
2017-10-16T12:02:48.661Z,5.90
2017-10-16T12:05:19.457Z,5.63
2017-10-16T12:07:50.226Z,6.50
2017-10-16T12:10:21.041Z,5.90
2017-10-16T12:12:51.795Z,6.17
2017-10-16T12:15:22.581Z,6.03
2017-10-16T12:17:53.348Z,6.13
2017-10-16T12:20:24.155Z,5.90
2017-10-16T12:22:54.926Z,5.97
2017-10-16T12:25:25.695Z,6.10
2017-10-16T12:27:56.461Z,6.07
2017-10-16T12:30:27.269Z,6.27
2017-10-16T12:32:58.025Z,6.17
2017-10-16T12:35:28.821Z,6.00
2017-10-16T12:37:59.590Z,6.27
2017-10-16T12:40:30.350Z,6.00
2017-10-16T12:43:01.130Z,6.13
2017-10-16T12:45:31.916Z,6.00
2017-10-16T12:48:02.682Z,6.00
2017-10-16T12:50:33.467Z,5.90
2017-10-16T12:53:04.238Z,5.40
2017-10-16T12:55:35.022Z,5.70
2017-10-16T12:58:05.781Z,6.00
2017-10-16T13:00:36.595Z,6.27
2017-10-16T13:03:07.369Z,5.40
2017-10-16T13:05:38.144Z,6.00
2017-10-16T13:08:08.940Z,6.30
2017-10-16T13:10:39.725Z,5.80
2017-10-16T13:13:10.500Z,5.70
2017-10-16T13:15:41.281Z,5.90
2017-10-16T13:18:12.045Z,6.07
2017-10-16T13:20:42.830Z,5.87
2017-10-16T13:23:13.609Z,5.63
2017-10-16T13:25:44.385Z,5.87
2017-10-16T13:28:15.433Z,5.70
2017-10-16T13:30:46.186Z,5.77
2017-10-16T13:33:16.979Z,5.80
2017-10-16T13:35:47.775Z,5.93
2017-10-16T13:38:18.522Z,6.00
2017-10-16T13:40:49.289Z,5.80
2017-10-16T13:43:20.054Z,6.10
2017-10-16T13:45:50.842Z,5.60
2017-10-16T13:48:21.597Z,5.80
2017-10-16T13:50:52.369Z,5.80
2017-10-16T13:53:23.129Z,5.77
2017-10-16T13:55:53.937Z,5.87
2017-10-16T13:58:24.674Z,5.80
2017-10-16T14:00:55.457Z,5.70
2017-10-16T14:03:26.229Z,5.93
2017-10-16T14:05:56.974Z,5.83
2017-10-16T14:08:27.753Z,6.33
2017-10-16T14:10:58.539Z,6.30
2017-10-16T14:13:29.338Z,6.00
2017-10-16T14:16:00.097Z,6.07
2017-10-16T14:18:30.876Z,5.97
2017-10-16T14:21:01.649Z,5.70
2017-10-16T14:23:32.429Z,6.30
2017-10-16T14:26:03.202Z,5.90
2017-10-16T14:28:33.989Z,6.13
2017-10-16T14:31:04.750Z,5.70
2017-10-16T14:33:35.541Z,5.70
2017-10-16T14:36:06.307Z,6.00
2017-10-16T14:38:37.081Z,5.80
2017-10-16T14:41:07.918Z,5.40
2017-10-16T14:43:38.697Z,5.63
2017-10-16T14:46:09.729Z,5.70
2017-10-16T14:48:40.500Z,5.80
2017-10-16T14:51:11.257Z,6.27
2017-10-16T14:53:42.034Z,6.00
2017-10-16T14:56:12.799Z,5.93
2017-10-16T14:58:43.591Z,5.60
2017-10-16T15:01:14.349Z,5.70
2017-10-16T15:03:45.135Z,5.93
2017-10-16T15:06:15.913Z,5.70
2017-10-16T15:08:46.687Z,6.30
2017-10-16T15:11:17.460Z,6.00
2017-10-16T15:13:48.243Z,6.20
2017-10-16T15:16:19.021Z,6.07
2017-10-16T15:18:50.594Z,5.70
2017-10-16T15:21:21.461Z,5.87
2017-10-16T15:23:52.242Z,5.60
2017-10-16T15:26:23.021Z,5.30
2017-10-16T15:28:53.809Z,5.60
2017-10-16T15:31:24.972Z,5.67
2017-10-16T15:33:55.747Z,5.90
2017-10-16T15:36:26.543Z,5.90
2017-10-16T15:38:57.306Z,5.97
2017-10-16T15:41:28.937Z,6.00
2017-10-16T15:43:59.706Z,6.23
2017-10-16T15:46:30.489Z,5.90
2017-10-16T15:49:01.257Z,6.13
2017-10-16T15:51:32.047Z,5.97
2017-10-16T15:54:02.829Z,6.27
2017-10-16T15:56:33.638Z,6.00
2017-10-16T15:59:04.423Z,6.13
2017-10-16T16:01:35.502Z,6.20
2017-10-16T16:04:06.277Z,5.70
2017-10-16T16:06:37.078Z,6.37
2017-10-16T16:09:07.883Z,6.13
2017-10-16T16:11:38.677Z,5.90
2017-10-16T16:14:09.467Z,7.67
2017-10-16T16:16:40.263Z,9.30
2017-10-16T16:19:11.032Z,8.53
2017-10-16T16:21:41.830Z,8.37
2017-10-16T16:24:12.593Z,8.20
2017-10-16T16:26:43.489Z,8.93
2017-10-16T16:29:14.329Z,9.07
2017-10-16T16:31:45.107Z,10.32
2017-10-16T16:34:15.904Z,9.67
2017-10-16T16:36:46.997Z,9.40
2017-10-16T16:39:17.792Z,8.93
2017-10-16T16:41:48.585Z,9.00
2017-10-16T16:44:19.398Z,9.20
2017-10-16T16:46:50.189Z,9.07
2017-10-16T16:49:20.979Z,9.80
2017-10-16T16:51:51.793Z,8.37
2017-10-16T16:54:22.549Z,8.30
2017-10-16T16:56:53.340Z,9.53
2017-10-16T16:59:24.097Z,10.63
2017-10-16T17:01:54.905Z,10.00
2017-10-16T17:04:25.697Z,10.00
2017-10-16T17:06:56.465Z,10.27
2017-10-16T17:09:27.238Z,9.50
2017-10-16T17:11:58.006Z,9.60
2017-10-16T17:14:28.753Z,9.83
2017-10-16T17:16:59.548Z,9.20
2017-10-16T17:19:30.308Z,8.57
2017-10-16T17:22:01.089Z,9.17
2017-10-16T17:24:31.862Z,8.77
2017-10-16T17:27:02.647Z,8.73
2017-10-16T17:29:33.444Z,8.87
2017-10-16T17:32:04.226Z,8.90
2017-10-16T17:34:35.046Z,8.43
2017-10-16T17:37:05.830Z,8.20
2017-10-16T17:39:36.614Z,7.60
2017-10-16T17:42:07.388Z,8.13
2017-10-16T17:44:38.165Z,7.63
2017-10-16T17:47:08.969Z,7.40
2017-10-16T17:49:39.857Z,7.83
2017-10-16T17:52:10.612Z,6.83
2017-10-16T17:54:41.517Z,7.60
2017-10-16T17:57:12.285Z,7.30
2017-10-16T17:59:43.087Z,7.40
2017-10-16T18:02:13.850Z,7.33
2017-10-16T18:04:44.642Z,7.50
2017-10-16T18:07:15.402Z,7.60
2017-10-16T18:09:46.178Z,7.70
2017-10-16T18:12:16.918Z,7.53
2017-10-16T18:14:47.697Z,8.27
2017-10-16T18:17:18.482Z,10.90
2017-10-16T18:19:49.316Z,18.07
2017-10-16T18:22:20.775Z,14.27
2017-10-16T18:24:51.594Z,18.37
2017-10-16T18:27:22.397Z,20.17
2017-10-16T18:29:53.162Z,17.93
2017-10-16T18:32:23.951Z,18.73
2017-10-16T18:34:54.705Z,17.17
2017-10-16T18:37:25.517Z,18.37
2017-10-16T18:39:56.297Z,18.50
2017-10-16T18:42:27.078Z,16.97
2017-10-16T18:44:57.843Z,16.30
2017-10-16T18:47:28.619Z,16.40
2017-10-16T18:49:59.497Z,15.90
2017-10-16T18:52:30.259Z,15.30
2017-10-16T18:55:01.058Z,15.93
2017-10-16T18:57:31.829Z,14.67
2017-10-16T19:00:02.621Z,15.90
2017-10-16T19:02:33.393Z,13.87
2017-10-16T19:05:04.175Z,12.60
2017-10-16T19:07:34.962Z,14.63
2017-10-16T19:10:05.759Z,14.00
2017-10-16T19:12:36.531Z,14.13
2017-10-16T19:15:07.301Z,12.83
2017-10-16T19:17:38.097Z,12.67
2017-10-16T19:20:08.877Z,12.20
2017-10-16T19:22:39.654Z,12.57
2017-10-16T19:25:10.437Z,12.37
2017-10-16T19:27:41.220Z,12.50
2017-10-16T19:30:12.059Z,12.57
2017-10-16T19:32:42.837Z,12.10
2017-10-16T19:35:13.626Z,12.30
2017-10-16T19:37:44.397Z,11.37
2017-10-16T19:40:15.213Z,10.87
2017-10-16T19:42:45.995Z,11.50
2017-10-16T19:45:16.769Z,10.97
2017-10-16T19:47:47.648Z,11.47
2017-10-16T19:50:18.340Z,11.03
2017-10-16T19:52:49.139Z,11.57
2017-10-16T19:55:19.897Z,11.30
2017-10-16T19:57:50.701Z,10.87
2017-10-16T20:00:21.489Z,11.13
2017-10-16T20:02:52.910Z,9.80
2017-10-16T20:05:23.727Z,10.73
2017-10-16T20:07:54.534Z,10.07
2017-10-16T20:10:25.338Z,10.33
2017-10-16T20:12:56.110Z,10.27
2017-10-16T20:15:26.893Z,10.27
2017-10-16T20:17:57.707Z,9.43
2017-10-16T20:20:28.502Z,9.60
2017-10-16T20:22:59.306Z,9.80
2017-10-16T20:25:30.071Z,9.70
2017-10-16T20:28:00.882Z,9.57
2017-10-16T20:30:31.662Z,9.30
2017-10-16T20:33:02.435Z,10.03
2017-10-16T20:35:33.210Z,9.30
2017-10-16T20:38:03.995Z,9.10
2017-10-16T20:40:34.765Z,8.87
2017-10-16T20:43:05.589Z,8.70
2017-10-16T20:45:36.399Z,9.63
2017-10-16T20:48:07.150Z,8.83
2017-10-16T20:50:37.927Z,8.80
2017-10-16T20:53:08.728Z,9.30
2017-10-16T20:55:39.485Z,9.33
2017-10-16T20:58:10.291Z,8.90
2017-10-16T21:00:41.058Z,8.63
2017-10-16T21:03:11.838Z,8.37
2017-10-16T21:05:42.598Z,8.67
2017-10-16T21:08:13.397Z,7.87
2017-10-16T21:10:44.175Z,9.03
2017-10-16T21:13:14.941Z,8.30
2017-10-16T21:15:45.718Z,8.30
2017-10-16T21:18:16.519Z,8.17
2017-10-16T21:20:47.289Z,8.37
2017-10-16T21:23:18.577Z,8.30
2017-10-16T21:25:49.318Z,8.47
2017-10-16T21:28:20.117Z,8.07
2017-10-16T21:30:50.877Z,8.37
2017-10-16T21:33:21.641Z,8.10
2017-10-16T21:35:52.444Z,8.60
2017-10-16T21:38:23.232Z,8.10
2017-10-16T21:40:54.002Z,8.63
2017-10-16T21:43:24.811Z,8.60
2017-10-16T21:45:55.582Z,8.30
2017-10-16T21:48:26.381Z,8.07
2017-10-16T21:50:57.158Z,8.10
2017-10-16T21:53:27.958Z,8.00
2017-10-16T21:55:58.699Z,8.10
2017-10-16T21:58:29.517Z,7.83
2017-10-16T22:01:00.324Z,8.00
2017-10-16T22:03:31.174Z,8.10
2017-10-16T22:06:01.960Z,7.60
2017-10-16T22:08:32.733Z,7.87
2017-10-16T22:11:03.509Z,7.47
2017-10-16T22:13:34.288Z,7.60
2017-10-16T22:16:05.081Z,7.63
2017-10-16T22:18:35.853Z,7.77
2017-10-16T22:21:06.649Z,8.00
2017-10-16T22:23:37.433Z,7.57
2017-10-16T22:26:08.249Z,7.90
2017-10-16T22:28:39.010Z,7.90
2017-10-16T22:31:09.765Z,7.80
2017-10-16T22:33:40.547Z,7.87
2017-10-16T22:36:11.318Z,7.43
2017-10-16T22:38:42.098Z,7.67
2017-10-16T22:41:12.862Z,7.70
2017-10-16T22:43:43.656Z,7.73
2017-10-16T22:46:14.457Z,6.80
2017-10-16T22:48:45.193Z,7.37
2017-10-16T22:51:15.965Z,7.63
2017-10-16T22:53:46.743Z,7.37
2017-10-16T22:56:17.517Z,7.33
2017-10-16T22:58:48.280Z,7.17
2017-10-16T23:01:19.028Z,6.67
2017-10-16T23:03:49.813Z,7.10
2017-10-16T23:06:20.589Z,7.00
2017-10-16T23:08:51.357Z,6.97
2017-10-16T23:11:22.136Z,7.10
2017-10-16T23:13:52.901Z,6.87
2017-10-16T23:16:23.654Z,6.87
2017-10-16T23:18:54.439Z,6.93
2017-10-16T23:21:25.217Z,6.97
2017-10-16T23:23:55.985Z,7.03
2017-10-16T23:26:26.780Z,7.10
2017-10-16T23:28:57.537Z,6.87
2017-10-16T23:31:28.328Z,7.17
2017-10-16T23:33:59.077Z,6.83
2017-10-16T23:36:29.856Z,6.73
2017-10-16T23:39:00.613Z,6.70
2017-10-16T23:41:31.393Z,6.47
2017-10-16T23:44:02.170Z,6.47
2017-10-16T23:46:32.945Z,6.50
2017-10-16T23:49:03.709Z,7.00
2017-10-16T23:51:34.486Z,6.90
2017-10-16T23:54:05.254Z,6.60
2017-10-16T23:56:36.010Z,6.87
2017-10-16T23:59:06.797Z,6.60
